createdAt,value
2023-05-18T00:02:05.985Z,80.84
2023-05-18T00:04:35.055Z,80.24
2023-05-18T00:07:04.873Z,80.05
2023-05-18T00:09:34.029Z,81.89
2023-05-18T00:12:01.973Z,82.36
2023-05-18T00:14:29.591Z,80.02
2023-05-18T00:16:58.052Z,78.55
2023-05-18T00:19:25.492Z,80.01
2023-05-18T00:21:52.894Z,79.56
2023-05-18T00:24:20.194Z,78.95
2023-05-18T00:26:48.427Z,80.76
2023-05-18T00:29:16.163Z,82.25
2023-05-18T00:31:45.525Z,82.16
2023-05-18T00:34:13.738Z,80.29
2023-05-18T00:36:46.607Z,81.50
2023-05-18T00:39:14.163Z,80.39
2023-05-18T00:41:41.567Z,81.44
2023-05-18T00:44:09.059Z,81.04
2023-05-18T00:46:36.562Z,82.79
2023-05-18T00:49:04.326Z,81.55
2023-05-18T00:51:32.651Z,82.23
2023-05-18T00:54:00.517Z,83.47
2023-05-18T00:56:28.632Z,81.96
2023-05-18T00:58:57.418Z,80.58
2023-05-18T01:01:28.343Z,79.59
2023-05-18T01:03:57.208Z,79.58
2023-05-18T01:06:27.466Z,80.89
2023-05-18T01:08:55.235Z,79.12
2023-05-18T01:11:30.664Z,80.45
2023-05-18T01:14:11.577Z,76.89
2023-05-18T01:16:49.025Z,76.28
2023-05-18T01:19:24.149Z,76.48
2023-05-18T01:22:04.364Z,74.87
2023-05-18T01:24:36.927Z,74.97
2023-05-18T01:27:06.925Z,73.18
2023-05-18T01:29:34.815Z,72.41
2023-05-18T01:32:02.283Z,74.15
2023-05-18T01:34:29.800Z,73.09
2023-05-18T01:36:59.953Z,71.69
2023-05-18T01:39:27.350Z,72.53
2023-05-18T01:42:03.858Z,70.68
2023-05-18T01:44:34.226Z,75.29
2023-05-18T01:47:14.919Z,72.58
2023-05-18T01:49:54.577Z,70.87
2023-05-18T01:52:29.130Z,75.84
2023-05-18T01:54:57.763Z,71.28
2023-05-18T01:57:27.388Z,71.55
2023-05-18T01:59:55.533Z,69.36
2023-05-18T02:02:25.000Z,70.91
2023-05-18T02:04:52.840Z,70.13
2023-05-18T02:07:20.288Z,71.95
2023-05-18T02:09:47.729Z,71.07
2023-05-18T02:12:15.130Z,72.13
2023-05-18T02:14:42.468Z,70.57
2023-05-18T02:17:10.347Z,70.33
2023-05-18T02:19:38.380Z,69.71
2023-05-18T02:22:07.098Z,70.73
2023-05-18T02:24:34.851Z,71.66
2023-05-18T02:27:07.039Z,73.64
2023-05-18T02:29:34.359Z,74.20
2023-05-18T02:32:01.744Z,75.68
2023-05-18T02:34:33.094Z,77.85
2023-05-18T02:37:04.027Z,77.38
2023-05-18T02:39:31.656Z,77.77
2023-05-18T02:41:59.176Z,73.33
2023-05-18T02:44:26.806Z,78.71
2023-05-18T02:46:54.147Z,80.64
2023-05-18T02:49:21.517Z,79.98
2023-05-18T02:51:49.008Z,79.16
2023-05-18T02:54:16.425Z,79.17
2023-05-18T02:56:45.734Z,81.77
2023-05-18T02:59:22.565Z,81.88
2023-05-18T03:01:50.152Z,81.53
2023-05-18T03:04:17.700Z,81.30
2023-05-18T03:06:53.127Z,81.26
2023-05-18T03:09:23.176Z,79.09
2023-05-18T03:11:53.556Z,78.61
2023-05-18T03:14:21.329Z,79.18
2023-05-18T03:16:48.998Z,77.28
2023-05-18T03:19:17.956Z,79.01
2023-05-18T03:21:46.067Z,80.94
2023-05-18T03:24:14.691Z,79.20
2023-05-18T03:26:44.477Z,77.94
2023-05-18T03:29:13.661Z,78.86
2023-05-18T03:31:41.714Z,76.82
2023-05-18T03:34:10.876Z,72.91
2023-05-18T03:36:38.612Z,73.80
2023-05-18T03:39:06.868Z,75.17
2023-05-18T03:41:34.723Z,76.53
2023-05-18T03:44:02.451Z,76.85
2023-05-18T03:46:30.693Z,77.44
2023-05-18T03:48:58.434Z,77.31
2023-05-18T03:51:33.696Z,77.66
2023-05-18T03:54:01.890Z,73.21
2023-05-18T03:56:31.375Z,75.58
2023-05-18T03:58:58.844Z,73.28
2023-05-18T04:01:26.190Z,72.69
2023-05-18T04:03:56.646Z,71.97
2023-05-18T04:06:26.437Z,71.87
2023-05-18T04:08:53.884Z,71.19
2023-05-18T04:11:22.660Z,67.33
2023-05-18T04:13:50.992Z,68.08
2023-05-18T04:16:18.563Z,67.29
2023-05-18T04:18:46.023Z,68.72
2023-05-18T04:21:13.462Z,66.77
2023-05-18T04:23:40.937Z,68.25
2023-05-18T04:26:09.138Z,66.73
2023-05-18T04:28:39.606Z,68.89
2023-05-18T04:31:06.943Z,67.78
2023-05-18T04:33:34.267Z,64.88
2023-05-18T04:36:05.112Z,61.91
2023-05-18T04:38:35.713Z,62.65
2023-05-18T04:41:07.749Z,66.20
2023-05-18T04:43:36.740Z,63.24
2023-05-18T04:46:04.370Z,61.71
2023-05-18T04:48:33.495Z,63.25
2023-05-18T04:51:04.984Z,64.56
2023-05-18T04:53:33.691Z,62.50
2023-05-18T04:56:01.445Z,62.67
2023-05-18T04:58:30.512Z,63.30
2023-05-18T05:00:58.221Z,63.04
2023-05-18T05:03:25.649Z,65.45
2023-05-18T05:05:53.104Z,65.19
2023-05-18T05:08:20.347Z,64.04
2023-05-18T05:10:47.643Z,61.86
2023-05-18T05:13:15.616Z,63.29
2023-05-18T05:15:42.973Z,59.80
2023-05-18T05:18:10.418Z,59.96
2023-05-18T05:20:38.076Z,58.71
2023-05-18T05:23:05.584Z,57.91
2023-05-18T05:25:33.183Z,57.13
2023-05-18T05:28:01.904Z,56.14
2023-05-18T05:30:29.779Z,56.16
2023-05-18T05:32:57.165Z,58.18
2023-05-18T05:35:24.921Z,57.66
2023-05-18T05:37:52.192Z,55.45
2023-05-18T05:40:20.385Z,56.14
2023-05-18T05:42:47.924Z,55.35
2023-05-18T05:45:15.462Z,55.15
2023-05-18T05:47:51.138Z,53.59
2023-05-18T05:50:20.634Z,54.75
2023-05-18T05:52:49.824Z,51.11
2023-05-18T05:55:18.085Z,51.80
2023-05-18T05:57:45.403Z,53.08
2023-05-18T06:00:13.172Z,52.50
2023-05-18T06:02:51.962Z,52.28
2023-05-18T06:05:42.051Z,50.80
2023-05-18T06:08:10.985Z,48.94
2023-05-18T06:10:39.353Z,46.62
2023-05-18T06:13:07.232Z,43.86
2023-05-18T06:16:00.479Z,41.91
2023-05-18T06:18:27.920Z,43.28
2023-05-18T06:21:00.636Z,39.10
2023-05-18T06:23:28.156Z,39.73
2023-05-18T06:26:04.312Z,38.03
2023-05-18T06:28:31.595Z,39.02
2023-05-18T06:31:22.149Z,41.37
2023-05-18T06:33:51.904Z,38.54
2023-05-18T06:36:19.204Z,37.88
2023-05-18T06:38:46.490Z,36.18
2023-05-18T06:41:13.754Z,34.85
2023-05-18T06:43:41.363Z,34.70
2023-05-18T06:46:22.365Z,36.39
2023-05-18T06:48:53.213Z,34.25
2023-05-18T06:51:21.121Z,33.04
2023-05-18T06:53:48.648Z,34.67
2023-05-18T06:56:16.858Z,33.52
2023-05-18T06:58:45.607Z,33.39
2023-05-18T07:01:13.467Z,33.08
2023-05-18T07:03:41.114Z,32.32
2023-05-18T07:06:08.625Z,30.50
2023-05-18T07:08:38.529Z,32.00
2023-05-18T07:11:05.796Z,32.04
2023-05-18T07:13:33.173Z,34.04
2023-05-18T07:16:00.742Z,28.88
2023-05-18T07:18:28.119Z,31.75
2023-05-18T07:20:55.372Z,31.20
2023-05-18T07:23:23.481Z,32.60
2023-05-18T07:25:51.033Z,33.24
2023-05-18T07:28:18.358Z,33.91
2023-05-18T07:30:45.602Z,33.60
2023-05-18T07:33:12.908Z,33.48
2023-05-18T07:35:40.208Z,33.02
2023-05-18T07:38:07.577Z,30.21
2023-05-18T07:40:34.849Z,29.00
2023-05-18T07:43:02.221Z,27.88
2023-05-18T07:45:29.905Z,27.81
2023-05-18T07:47:57.809Z,29.18
2023-05-18T07:50:25.116Z,30.09
2023-05-18T07:52:52.395Z,35.83
2023-05-18T07:55:19.622Z,36.14
2023-05-18T07:57:47.342Z,33.55
2023-05-18T08:00:14.796Z,33.01
2023-05-18T08:02:43.093Z,32.98
2023-05-18T08:05:11.040Z,32.22
2023-05-18T08:07:38.710Z,33.80
2023-05-18T08:10:06.216Z,32.99
2023-05-18T08:12:33.402Z,28.05
2023-05-18T08:15:00.641Z,29.33
2023-05-18T08:17:27.881Z,26.44
2023-05-18T08:19:55.441Z,33.00
2023-05-18T08:22:22.814Z,33.86
2023-05-18T08:24:50.015Z,30.86
2023-05-18T08:27:17.292Z,31.38
2023-05-18T08:29:44.505Z,29.22
2023-05-18T08:32:12.039Z,26.22
2023-05-18T08:34:39.452Z,27.18
2023-05-18T08:37:06.817Z,25.02
2023-05-18T08:39:34.065Z,30.58
2023-05-18T08:42:02.921Z,29.10
2023-05-18T08:44:40.685Z,30.34
2023-05-18T08:47:09.780Z,30.70
2023-05-18T08:49:37.233Z,32.84
2023-05-18T08:52:04.933Z,33.16
2023-05-18T08:54:33.012Z,30.93
2023-05-18T08:57:01.053Z,27.57
2023-05-18T08:59:31.410Z,28.38
2023-05-18T09:01:59.085Z,30.56
2023-05-18T09:04:27.323Z,35.06
2023-05-18T09:06:55.066Z,33.29
2023-05-18T09:09:24.320Z,32.81
2023-05-18T09:11:52.022Z,30.97
2023-05-18T09:14:19.482Z,31.38
2023-05-18T09:16:46.845Z,35.01
2023-05-18T09:19:14.360Z,32.89
2023-05-18T09:21:41.740Z,35.57
2023-05-18T09:24:09.005Z,37.20
2023-05-18T09:26:36.939Z,36.84
2023-05-18T09:29:15.687Z,35.44
2023-05-18T09:31:43.004Z,33.71
2023-05-18T09:34:11.758Z,35.76
2023-05-18T09:36:39.754Z,35.53
2023-05-18T09:39:08.554Z,37.72
2023-05-18T09:41:37.530Z,37.30
2023-05-18T09:44:09.225Z,37.16
2023-05-18T09:46:38.060Z,37.31
2023-05-18T09:49:06.710Z,35.03
2023-05-18T09:51:38.198Z,37.51
2023-05-18T09:54:08.505Z,35.84
2023-05-18T09:56:37.435Z,36.11
2023-05-18T09:59:15.076Z,36.30
2023-05-18T10:02:01.899Z,35.05
2023-05-18T10:04:39.585Z,35.22
2023-05-18T10:07:16.711Z,39.25
2023-05-18T10:09:45.045Z,37.49
2023-05-18T10:12:13.619Z,37.91
2023-05-18T10:14:44.597Z,37.00
2023-05-18T10:17:15.689Z,36.54
2023-05-18T10:19:44.513Z,38.07
2023-05-18T10:22:14.633Z,39.17
2023-05-18T10:24:43.406Z,38.66
2023-05-18T10:27:11.205Z,37.76
2023-05-18T10:29:38.655Z,39.81
2023-05-18T10:32:07.912Z,35.39
2023-05-18T10:34:36.324Z,36.88
2023-05-18T10:37:05.071Z,40.23
2023-05-18T10:39:34.217Z,34.22
2023-05-18T10:42:02.403Z,36.37
2023-05-18T10:44:30.779Z,35.18
2023-05-18T10:46:58.370Z,36.11
2023-05-18T10:49:26.217Z,36.83
2023-05-18T10:51:56.650Z,37.06
2023-05-18T10:54:24.119Z,40.91
2023-05-18T10:56:52.402Z,37.52
2023-05-18T10:59:20.483Z,39.54
2023-05-18T11:01:48.005Z,40.32
2023-05-18T11:04:15.322Z,41.40
2023-05-18T11:06:42.769Z,41.83
2023-05-18T11:09:22.411Z,41.64
2023-05-18T11:11:54.168Z,37.25
2023-05-18T11:14:25.370Z,42.08
2023-05-18T11:16:52.764Z,39.34
2023-05-18T11:19:24.633Z,41.28
2023-05-18T11:21:53.121Z,41.40
2023-05-18T11:24:26.673Z,38.99
2023-05-18T11:26:55.173Z,42.09
2023-05-18T11:29:32.899Z,42.02
2023-05-18T11:32:04.887Z,37.52
2023-05-18T11:34:46.185Z,36.64
2023-05-18T11:37:14.632Z,36.45
2023-05-18T11:42:23.092Z,39.60
2023-05-18T11:44:55.783Z,39.90
2023-05-18T11:47:29.578Z,43.34
2023-05-18T11:49:57.414Z,41.77
2023-05-18T11:52:25.466Z,41.63
2023-05-18T11:54:53.155Z,44.53
2023-05-18T11:57:21.363Z,42.86
2023-05-18T11:59:54.647Z,42.08
2023-05-18T12:02:22.726Z,44.26
2023-05-18T12:04:56.435Z,42.06
2023-05-18T12:07:25.400Z,39.65
2023-05-18T12:09:52.774Z,40.31
2023-05-18T12:12:20.558Z,37.68
2023-05-18T12:14:53.576Z,39.28
2023-05-18T12:17:21.005Z,41.50
2023-05-18T12:19:49.183Z,39.22
2023-05-18T12:22:16.992Z,37.56
2023-05-18T12:24:44.395Z,38.90
2023-05-18T12:27:12.603Z,37.83
2023-05-18T12:29:43.194Z,38.45
2023-05-18T12:49:50.544Z,38.21
2023-05-18T12:52:21.405Z,38.79
2023-05-18T12:54:55.553Z,39.71
2023-05-18T12:57:26.729Z,39.30
2023-05-18T12:59:55.247Z,39.89
2023-05-18T13:02:30.464Z,39.72
2023-05-18T13:05:07.715Z,39.20
2023-05-18T13:07:41.897Z,40.87
2023-05-18T13:16:23.095Z,39.23
2023-05-18T13:18:56.178Z,41.06
2023-05-18T13:21:23.516Z,40.17
2023-05-18T13:23:50.741Z,41.91
2023-05-18T13:26:19.031Z,43.77
2023-05-18T13:28:46.694Z,42.53
2023-05-18T13:31:13.965Z,43.95
2023-05-18T13:33:41.353Z,42.68
2023-05-18T13:36:08.936Z,42.63
2023-05-18T13:38:37.499Z,43.56
2023-05-18T13:41:05.049Z,42.76
2023-05-18T13:43:35.313Z,41.44
2023-05-18T13:46:02.682Z,40.38
2023-05-18T13:48:30.437Z,41.41
2023-05-18T13:50:57.688Z,41.46
2023-05-18T13:53:28.526Z,44.09
2023-05-18T13:55:55.914Z,40.75
2023-05-18T13:58:23.946Z,41.30
2023-05-18T14:00:53.945Z,42.19
2023-05-18T14:03:21.553Z,41.93
2023-05-18T14:05:49.500Z,42.71
2023-05-18T14:08:19.987Z,42.92
2023-05-18T14:10:47.250Z,45.70
2023-05-18T14:13:15.359Z,42.12
2023-05-18T14:15:42.763Z,42.81
2023-05-18T14:18:10.269Z,42.37
2023-05-18T14:20:38.210Z,41.96
2023-05-18T14:23:06.538Z,42.54
2023-05-18T14:25:35.513Z,41.64
2023-05-18T14:28:02.768Z,41.36
2023-05-18T14:30:30.159Z,41.80
2023-05-18T14:32:57.515Z,42.04
2023-05-18T14:35:24.731Z,41.93
2023-05-18T14:37:51.877Z,42.91
2023-05-18T14:40:19.035Z,42.85
2023-05-18T14:42:46.134Z,42.71
2023-05-18T14:45:13.574Z,43.60
2023-05-18T14:47:40.758Z,43.17
2023-05-18T14:50:08.154Z,42.55
2023-05-18T14:52:35.852Z,41.79
2023-05-18T14:55:03.105Z,42.09
2023-05-18T14:57:30.293Z,41.12
2023-05-18T14:59:58.484Z,41.43
2023-05-18T15:02:25.842Z,41.47
2023-05-18T15:04:53.037Z,42.56
2023-05-18T15:07:20.258Z,40.56
2023-05-18T15:09:47.535Z,40.26
2023-05-18T15:12:14.807Z,40.92
2023-05-18T15:14:42.231Z,42.04
2023-05-18T15:17:09.441Z,42.02
2023-05-18T15:19:36.781Z,40.53
2023-05-18T15:22:04.148Z,40.99
2023-05-18T15:24:31.375Z,40.42
2023-05-18T15:27:01.361Z,41.51
2023-05-18T15:29:28.491Z,40.89
2023-05-18T15:31:56.104Z,41.11
2023-05-18T15:34:23.300Z,41.73
2023-05-18T15:36:50.525Z,41.63
2023-05-18T15:39:17.763Z,40.89
2023-05-18T15:41:44.871Z,41.06
2023-05-18T15:44:11.976Z,41.96
2023-05-18T15:46:39.200Z,40.99
2023-05-18T15:49:06.330Z,42.01
2023-05-18T15:51:33.468Z,43.01
2023-05-18T15:54:01.736Z,41.63
2023-05-18T15:56:29.052Z,40.62
2023-05-18T15:58:56.240Z,41.38
2023-05-18T16:01:23.505Z,41.86
2023-05-18T16:03:51.034Z,42.07
2023-05-18T16:06:18.608Z,42.21
2023-05-18T16:08:48.785Z,41.59
2023-05-18T16:11:15.888Z,41.36
2023-05-18T16:13:42.990Z,41.97
2023-05-18T16:16:14.078Z,41.74
2023-05-18T16:18:41.420Z,42.39
2023-05-18T16:21:09.425Z,42.40
2023-05-18T16:23:36.729Z,43.10
2023-05-18T16:26:05.549Z,43.69
2023-05-18T16:28:34.162Z,43.63
2023-05-18T16:31:04.984Z,42.80
2023-05-18T16:33:32.738Z,43.53
2023-05-18T16:36:00.004Z,44.30
2023-05-18T16:38:27.543Z,43.98
2023-05-18T16:40:55.050Z,44.39
2023-05-18T16:43:22.432Z,44.25
2023-05-18T16:45:49.894Z,44.10
2023-05-18T16:48:17.284Z,45.33
2023-05-18T16:50:44.498Z,45.07
2023-05-18T16:53:13.643Z,46.02
2023-05-18T16:55:40.874Z,44.61
2023-05-18T16:58:08.311Z,44.62
2023-05-18T17:00:35.765Z,45.00
2023-05-18T17:03:03.449Z,44.65
2023-05-18T17:05:30.816Z,44.39
2023-05-18T17:07:59.257Z,47.28
2023-05-18T17:10:26.558Z,47.30
2023-05-18T17:12:53.805Z,48.14
2023-05-18T17:15:21.067Z,48.38
2023-05-18T17:17:48.494Z,48.71
2023-05-18T17:20:16.964Z,48.26
2023-05-18T17:22:44.167Z,49.36
2023-05-18T17:25:11.363Z,49.52
2023-05-18T17:27:38.623Z,49.34
2023-05-18T17:30:07.281Z,48.68
2023-05-18T17:32:34.633Z,48.59
2023-05-18T17:35:02.180Z,50.50
2023-05-18T17:37:29.399Z,48.82
2023-05-18T17:40:20.163Z,49.19
2023-05-18T17:42:47.429Z,49.45
2023-05-18T17:45:14.626Z,49.58
2023-05-18T17:48:08.252Z,50.33
2023-05-18T17:50:37.904Z,50.72
2023-05-18T17:53:07.329Z,49.45
2023-05-18T17:55:34.649Z,49.55
2023-05-18T17:58:02.615Z,50.51
2023-05-18T18:00:30.387Z,50.98
2023-05-18T18:02:58.010Z,51.06
2023-05-18T18:05:26.652Z,51.79
2023-05-18T18:07:54.487Z,52.03
2023-05-18T18:10:23.026Z,52.81
2023-05-18T18:12:50.592Z,51.79
2023-05-18T18:15:19.159Z,52.08
2023-05-18T18:17:46.578Z,53.03
2023-05-18T18:20:14.052Z,53.11
2023-05-18T18:22:41.425Z,52.38
2023-05-18T18:25:08.839Z,53.16
2023-05-18T18:27:37.466Z,53.30
2023-05-18T18:30:05.528Z,54.29
2023-05-18T18:32:33.218Z,54.69
2023-05-18T18:35:00.804Z,54.56
2023-05-18T18:37:28.505Z,55.48
2023-05-18T18:39:55.964Z,56.10
2023-05-18T18:42:23.460Z,55.29
2023-05-18T18:44:57.277Z,55.04
2023-05-18T18:47:25.024Z,56.03
2023-05-18T18:49:53.528Z,55.04
2023-05-18T18:52:21.044Z,55.26
2023-05-18T18:54:48.572Z,57.79
2023-05-18T18:57:19.203Z,57.99
2023-05-18T18:59:49.358Z,57.36
2023-05-18T19:02:18.164Z,56.04
2023-05-18T19:04:45.700Z,58.02
2023-05-18T19:07:14.182Z,58.27
2023-05-18T19:09:41.762Z,57.64
2023-05-18T19:12:09.465Z,58.67
2023-05-18T19:14:36.865Z,59.41
2023-05-18T19:17:04.466Z,60.04
2023-05-18T19:19:32.739Z,59.44
2023-05-18T19:22:00.146Z,60.00
2023-05-18T19:24:28.716Z,60.86
2023-05-18T19:26:56.883Z,61.00
2023-05-18T19:29:25.417Z,59.97
2023-05-18T19:31:55.051Z,59.13
2023-05-18T19:34:47.106Z,61.33
2023-05-18T19:37:14.468Z,60.08
2023-05-18T19:39:42.035Z,57.91
2023-05-18T19:42:09.587Z,57.76
2023-05-18T19:44:37.241Z,57.43
2023-05-18T19:47:06.955Z,57.63
2023-05-18T19:49:34.758Z,57.79
2023-05-18T19:52:08.400Z,58.69
2023-05-18T19:54:36.724Z,59.95
2023-05-18T19:57:06.496Z,59.82
2023-05-18T19:59:34.113Z,60.47
2023-05-18T20:02:07.332Z,60.08
2023-05-18T20:04:50.320Z,60.75
2023-05-18T20:07:18.625Z,62.40
2023-05-18T20:09:46.872Z,59.88
2023-05-18T20:12:14.458Z,59.36
2023-05-18T20:14:46.110Z,59.69
2023-05-18T20:17:14.420Z,59.96
2023-05-18T20:19:51.156Z,59.79
2023-05-18T20:22:21.309Z,61.46
2023-05-18T20:24:49.927Z,62.37
2023-05-18T20:27:17.836Z,62.60
2023-05-18T20:29:47.397Z,60.52
2023-05-18T20:32:22.284Z,62.85
2023-05-18T20:34:50.798Z,59.24
2023-05-18T20:37:19.796Z,60.95
2023-05-18T20:39:51.015Z,62.69
2023-05-18T20:42:22.632Z,63.76
2023-05-18T20:44:53.652Z,63.05
2023-05-18T20:47:21.415Z,62.76
2023-05-18T20:49:51.812Z,63.80
2023-05-18T20:52:19.436Z,60.52
2023-05-18T20:54:47.225Z,63.99
2023-05-18T20:57:17.995Z,61.38
2023-05-18T20:59:45.857Z,61.82
2023-05-18T21:02:13.777Z,60.15
2023-05-18T21:04:41.746Z,60.26
2023-05-18T21:07:10.099Z,60.11
2023-05-18T21:09:37.862Z,60.06
2023-05-18T21:12:06.000Z,60.64
2023-05-18T21:14:34.108Z,60.11
2023-05-18T21:17:04.233Z,58.83
2023-05-18T21:29:32.134Z,62.16
2023-05-18T21:41:55.946Z,62.68
2023-05-18T21:47:00.386Z,62.40
2023-05-18T21:49:35.707Z,64.81
2023-05-18T21:55:21.439Z,68.99
2023-05-18T21:58:05.479Z,67.58
2023-05-18T22:00:37.857Z,68.64
2023-05-18T22:03:05.477Z,65.69
2023-05-18T22:05:33.555Z,68.32
2023-05-18T22:08:01.305Z,66.21
2023-05-18T22:10:30.793Z,62.78
2023-05-18T22:12:58.600Z,65.38
2023-05-18T22:15:26.427Z,63.31
2023-05-18T22:18:01.651Z,64.21
2023-05-18T22:20:29.796Z,62.02
2023-05-18T22:22:58.374Z,64.69
2023-05-18T22:25:26.242Z,67.76
2023-05-18T22:27:54.640Z,66.30
2023-05-18T22:30:24.147Z,67.04
2023-05-18T22:32:53.574Z,66.11
2023-05-18T22:35:21.233Z,65.09
2023-05-18T22:37:48.703Z,64.15
2023-05-18T22:40:16.219Z,66.51
2023-05-18T22:42:43.683Z,66.23
2023-05-18T22:45:12.560Z,67.46
2023-05-18T22:47:40.383Z,69.56
2023-05-18T22:50:08.329Z,70.15
2023-05-18T22:52:36.952Z,66.48
2023-05-18T22:55:05.835Z,67.48
2023-05-18T22:57:35.122Z,66.31
2023-05-18T23:00:06.409Z,67.00
2023-05-18T23:02:34.008Z,67.18
2023-05-18T23:05:01.532Z,69.02
2023-05-18T23:07:30.648Z,66.98
2023-05-18T23:10:00.932Z,66.07
2023-05-18T23:12:30.542Z,67.40
2023-05-18T23:15:04.330Z,67.97
2023-05-18T23:17:39.138Z,69.28
2023-05-18T23:20:06.984Z,68.26
2023-05-18T23:22:35.065Z,68.17
2023-05-18T23:25:04.565Z,68.07
2023-05-18T23:27:32.058Z,69.06
2023-05-18T23:29:59.419Z,67.98
2023-05-18T23:32:33.076Z,68.18
2023-05-18T23:35:01.153Z,67.92
2023-05-18T23:37:35.735Z,66.42
2023-05-18T23:40:05.961Z,66.26
2023-05-18T23:42:36.550Z,66.04
2023-05-18T23:45:08.000Z,65.04
2023-05-18T23:47:39.041Z,65.68
2023-05-18T23:50:08.589Z,64.34
2023-05-18T23:52:42.340Z,64.69
2023-05-18T23:55:18.837Z,65.53
2023-05-18T23:57:47.363Z,65.30
